Time;durP1;ratioP1;P1;durP2;ratioP2;P2;SDS_P1;SDS_P2;PMS_P1;PMS_P2;Temp;Humidity;BMP_temperature;BMP_pressure;BME280_temperature;BME280_humidity;BME280_pressure;Samples;Min_cycle;Max_cycle;Signal;HPM_P1;HPM_P2
2022/08/16 00:00:48;;;;;;;1.25;1.13;;;20.30;99.90;;;;;;5080640;28;20044;-77
2022/08/16 00:03:14;;;;;;;1.35;1.20;;;20.30;99.90;;;;;;5048629;28;20483;-77
2022/08/16 00:05:41;;;;;;;2.00;1.30;;;20.30;99.90;;;;;;5049956;28;20051;-76
2022/08/16 00:08:06;;;;;;;1.30;1.10;;;20.30;99.90;;;;;;5049168;28;20062;-77
2022/08/16 00:10:33;;;;;;;1.90;1.58;;;20.30;99.90;;;;;;5047206;28;20127;-77
2022/08/16 00:13:01;;;;;;;1.23;1.10;;;20.30;99.90;;;;;;5048707;28;20045;-77
2022/08/16 00:15:31;;;;;;;1.30;1.20;;;20.30;99.90;;;;;;5046599;28;20033;-77
2022/08/16 00:17:57;;;;;;;1.30;1.20;;;20.30;99.90;;;;;;5081605;28;20090;-77
2022/08/16 00:20:23;;;;;;;1.25;1.15;;;20.30;99.90;;;;;;5049520;28;20036;-77
2022/08/16 00:22:49;;;;;;;1.50;1.20;;;20.30;99.90;;;;;;5046335;28;20029;-76
2022/08/16 00:25:17;;;;;;;1.45;1.27;;;20.40;99.90;;;;;;5048387;28;20059;-77
2022/08/16 00:27:43;;;;;;;1.48;1.27;;;20.40;99.90;;;;;;5047654;28;20488;-76
2022/08/16 00:30:14;;;;;;;1.50;1.23;;;20.40;99.90;;;;;;5031341;28;20059;-76
2022/08/16 00:32:42;;;;;;;1.23;1.10;;;20.40;99.90;;;;;;5043948;28;20061;-76
2022/08/16 00:35:11;;;;;;;1.45;1.35;;;20.30;99.90;;;;;;5046380;28;20086;-76
2022/08/16 00:37:37;;;;;;;1.30;1.20;;;20.40;99.90;;;;;;5047166;28;20037;-76
2022/08/16 00:40:05;;;;;;;1.60;1.30;;;20.40;99.90;;;;;;5030857;28;20048;-76
2022/08/16 00:42:31;;;;;;;1.73;1.40;;;20.30;99.90;;;;;;5062197;28;20468;-76
2022/08/16 00:45:01;;;;;;;1.33;1.23;;;20.30;99.90;;;;;;5048055;28;20124;-77
2022/08/16 00:47:26;;;;;;;1.10;1.00;;;20.30;99.90;;;;;;5079523;28;20047;-77
2022/08/16 00:49:53;;;;;;;1.08;1.00;;;20.30;99.90;;;;;;5047061;28;20127;-77
2022/08/16 00:52:18;;;;;;;1.10;1.00;;;20.30;99.90;;;;;;5048294;28;20044;-77
2022/08/16 00:54:44;;;;;;;1.65;1.13;;;20.20;99.90;;;;;;5030659;28;21220;-76
2022/08/16 00:57:11;;;;;;;1.30;1.20;;;20.30;99.90;;;;;;5046755;28;20995;-77
2022/08/16 00:59:39;;;;;;;1.05;1.00;;;20.20;99.90;;;;;;5047633;28;20049;-76
2022/08/16 01:02:07;;;;;;;1.40;1.20;;;20.30;99.90;;;;;;5047420;28;20040;-77
2022/08/16 01:04:34;;;;;;;1.30;1.20;;;20.20;99.90;;;;;;5032517;28;20131;-76
2022/08/16 01:07:03;;;;;;;1.05;0.95;;;20.20;99.90;;;;;;5049116;28;20036;-76
2022/08/16 01:09:37;;;;;;;1.50;1.20;;;20.30;99.90;;;;;;5081424;28;20116;-76
2022/08/16 01:12:05;;;;;;;1.30;1.20;;;20.30;99.90;;;;;;5044742;28;20045;-76
2022/08/16 01:14:38;;;;;;;1.63;1.27;;;20.30;99.90;;;;;;5081087;28;20090;-76
2022/08/16 01:17:04;;;;;;;1.48;1.20;;;20.20;99.90;;;;;;5081204;28;20119;-76
2022/08/16 01:19:44;;;;;;;1.35;1.25;;;20.30;99.90;;;;;;5064505;28;20464;-76
2022/08/16 01:22:29;;;;;;;1.52;1.20;;;20.30;99.90;;;;;;5082065;28;20043;-77
2022/08/16 01:25:04;;;;;;;1.55;1.45;;;20.30;99.90;;;;;;5062411;28;20104;-77
2022/08/16 01:27:35;;;;;;;1.52;1.40;;;20.20;99.90;;;;;;5047450;28;20040;-76
2022/08/16 01:30:10;;;;;;;1.50;1.20;;;20.30;99.90;;;;;;5048338;28;20045;-76
2022/08/16 01:32:41;;;;;;;1.30;1.20;;;20.20;99.90;;;;;;5049392;28;20141;-76
2022/08/16 01:35:39;;;;;;;1.27;1.17;;;20.30;99.90;;;;;;5065109;28;20045;-77
2022/08/16 01:38:35;;;;;;;1.48;1.20;;;20.20;99.90;;;;;;5030934;28;20032;-76
2022/08/16 01:41:05;;;;;;;1.38;1.10;;;20.20;99.90;;;;;;5046374;28;20045;-77
2022/08/16 01:43:32;;;;;;;1.33;1.20;;;20.20;99.90;;;;;;5079691;28;20090;-77
2022/08/16 01:46:01;;;;;;;1.40;1.20;;;20.20;99.90;;;;;;5047610;28;20040;-77
2022/08/16 01:48:30;;;;;;;1.50;1.20;;;20.20;99.90;;;;;;5021159;28;20043;-77
2022/08/16 01:50:57;;;;;;;1.63;1.30;;;20.20;99.90;;;;;;5047796;28;20102;-77
2022/08/16 01:53:23;;;;;;;1.77;1.33;;;20.30;99.90;;;;;;5046459;28;20036;-77
2022/08/16 01:55:49;;;;;;;1.40;1.30;;;20.30;99.90;;;;;;5046660;28;20047;-76
2022/08/16 01:58:16;;;;;;;1.48;1.30;;;20.20;99.90;;;;;;5047662;28;20048;-76
2022/08/16 02:00:42;;;;;;;1.48;1.38;;;20.30;99.90;;;;;;5081854;28;20041;-76
2022/08/16 02:03:08;;;;;;;1.20;1.10;;;20.20;99.90;;;;;;5050166;28;20569;-77
2022/08/16 02:05:34;;;;;;;1.50;1.40;;;20.20;99.90;;;;;;5035205;28;20127;-77
2022/08/16 02:08:00;;;;;;;1.90;1.40;;;20.10;99.90;;;;;;5052171;28;20076;-76
2022/08/16 02:10:26;;;;;;;1.65;1.55;;;20.20;99.90;;;;;;5082994;28;20549;-76
2022/08/16 02:12:52;;;;;;;1.50;1.40;;;20.10;99.90;;;;;;5050864;28;20063;-76
2022/08/16 02:15:25;;;;;;;1.42;1.33;;;20.10;99.90;;;;;;5083518;28;20040;-77
2022/08/16 02:17:51;;;;;;;1.65;1.55;;;20.10;99.90;;;;;;5068009;28;20485;-76
2022/08/16 02:20:18;;;;;;;1.73;1.38;;;20.10;99.90;;;;;;5067464;28;20044;-76
2022/08/16 02:22:44;;;;;;;1.45;1.33;;;20.10;99.90;;;;;;5049802;28;20472;-76
2022/08/16 02:25:13;;;;;;;1.63;1.52;;;20.10;99.90;;;;;;5049200;28;20120;-76
2022/08/16 02:27:41;;;;;;;1.50;1.30;;;20.20;99.90;;;;;;5065951;28;20067;-76
2022/08/16 02:30:13;;;;;;;1.52;1.42;;;20.10;99.90;;;;;;5032554;28;20194;-77
2022/08/16 02:32:42;;;;;;;1.52;1.42;;;20.10;99.90;;;;;;5049417;28;20440;-76
2022/08/16 02:35:09;;;;;;;1.60;1.50;;;20.20;99.90;;;;;;5080117;28;20048;-76
2022/08/16 02:37:35;;;;;;;1.70;1.50;;;20.20;99.90;;;;;;5064083;28;20090;-76
2022/08/16 02:40:01;;;;;;;1.55;1.45;;;20.20;99.90;;;;;;5049367;28;20056;-76
2022/08/16 02:42:27;;;;;;;1.70;1.60;;;20.10;99.90;;;;;;5050360;28;20383;-76
2022/08/16 02:44:52;;;;;;;;;;;20.10;99.90;;;;;;5082340;28;20063;-76
2022/08/16 02:47:18;;;;;;;1.90;1.50;;;20.10;99.90;;;;;;5080353;28;19924;-77
2022/08/16 02:49:44;;;;;;;;;;;20.10;99.90;;;;;;5033015;28;20044;-77
2022/08/16 02:52:10;;;;;;;2.42;1.25;;;20.20;99.90;;;;;;5048185;28;19929;-76
2022/08/16 02:54:36;;;;;;;1.60;1.50;;;20.20;99.90;;;;;;5049434;28;20041;-76
2022/08/16 02:57:03;;;;;;;;;;;20.20;99.90;;;;;;5050058;28;20033;-76
2022/08/16 02:59:29;;;;;;;1.48;1.38;;;20.20;99.90;;;;;;5047196;28;19920;-77
2022/08/16 03:01:55;;;;;;;1.60;1.50;;;20.30;99.90;;;;;;5065567;28;20045;-77
2022/08/16 03:04:21;;;;;;;;;;;20.10;99.90;;;;;;5034165;28;20059;-76
2022/08/16 03:06:47;;;;;;;1.65;1.55;;;20.20;99.90;;;;;;5050909;28;20299;-76
2022/08/16 03:09:12;;;;;;;;;;;20.20;99.90;;;;;;5050842;28;20040;-76
2022/08/16 03:11:38;;;;;;;1.85;1.45;;;20.20;99.90;;;;;;5080613;28;19925;-76
2022/08/16 03:14:05;;;;;;;1.83;1.55;;;20.30;99.90;;;;;;5066682;28;20086;-77
2022/08/16 03:16:31;;;;;;;1.98;1.70;;;20.10;99.90;;;;;;5046982;28;20122;-77
2022/08/16 03:18:57;;;;;;;1.90;1.70;;;20.20;99.90;;;;;;5081077;28;20040;-77
2022/08/16 03:21:22;;;;;;;1.95;1.75;;;20.20;99.90;;;;;;5049179;28;20059;-76
2022/08/16 03:23:48;;;;;;;;;;;20.10;99.90;;;;;;5043475;28;20496;-76
2022/08/16 03:26:15;;;;;;;2.00;1.80;;;20.20;99.90;;;;;;5059000;28;19925;-76
2022/08/16 03:28:41;;;;;;;2.55;1.90;;;20.10;99.90;;;;;;5025403;28;20439;-76
2022/08/16 03:31:07;;;;;;;;;;;20.00;99.90;;;;;;5025917;28;20113;-77
2022/08/16 03:33:33;;;;;;;2.00;1.80;;;20.00;99.90;;;;;;5056292;28;19927;-77
2022/08/16 03:36:00;;;;;;;1.77;1.67;;;20.00;99.90;;;;;;5042379;28;20046;-77
2022/08/16 03:38:28;;;;;;;2.30;2.10;;;20.00;99.90;;;;;;5031334;28;20060;-77
2022/08/16 03:40:55;;;;;;;2.10;1.90;;;19.90;99.90;;;;;;5021159;28;20049;-77
2022/08/16 03:43:21;;;;;;;2.13;1.92;;;19.80;99.90;;;;;;5025330;28;20560;-76
2022/08/16 03:45:47;;;;;;;;;;;19.70;99.90;;;;;;5021843;28;20120;-77
2022/08/16 03:48:12;;;;;;;1.77;1.67;;;19.80;99.90;;;;;;5025318;28;19925;-77
2022/08/16 03:50:38;;;;;;;;;;;19.70;99.90;;;;;;5025652;28;20439;-76
2022/08/16 03:53:05;;;;;;;2.40;2.20;;;19.60;99.90;;;;;;5059453;28;19963;-77
2022/08/16 03:55:31;;;;;;;2.40;2.20;;;19.60;99.90;;;;;;5025688;28;20041;-77
2022/08/16 03:57:56;;;;;;;;;;;19.60;99.90;;;;;;5042960;28;20116;-77
2022/08/16 04:00:26;;;;;;;2.42;2.17;;;19.40;99.90;;;;;;5058573;28;20007;-76
2022/08/16 04:02:54;;;;;;;2.35;2.15;;;19.40;99.90;;;;;;5038819;28;20056;-77
2022/08/16 04:05:20;;;;;;;2.03;1.83;;;19.40;99.90;;;;;;5040731;28;20124;-77
2022/08/16 04:07:46;;;;;;;;;;;19.40;99.90;;;;;;5027743;28;20136;-76
2022/08/16 04:10:13;;;;;;;2.15;1.95;;;19.30;99.90;;;;;;5042235;28;19931;-76
2022/08/16 04:12:40;;;;;;;2.13;1.92;;;19.20;99.90;;;;;;5029482;28;20491;-77
2022/08/16 04:15:09;;;;;;;2.30;2.10;;;19.30;99.90;;;;;;5025382;28;20053;-76
2022/08/16 04:17:35;;;;;;;2.33;2.13;;;19.20;99.90;;;;;;5009541;28;20431;-76
2022/08/16 04:20:06;;;;;;;;;;;19.20;99.90;;;;;;5042485;28;20049;-77
2022/08/16 04:22:32;;;;;;;3.28;2.83;;;19.10;99.90;;;;;;5022928;28;19921;-77
2022/08/16 04:24:58;;;;;;;;;;;19.10;99.90;;;;;;5024996;28;20119;-76
2022/08/16 04:27:24;;;;;;;2.40;2.20;;;19.20;99.90;;;;;;5025729;28;19917;-80
2022/08/16 04:29:50;;;;;;;;;;;19.10;99.90;;;;;;5025999;28;20103;-75
2022/08/16 04:32:15;;;;;;;2.83;2.63;;;19.10;99.90;;;;;;5026378;28;20388;-76
2022/08/16 04:34:41;;;;;;;;;;;19.10;99.90;;;;;;5026745;28;20037;-76
2022/08/16 04:37:07;;;;;;;3.10;2.78;;;19.00;99.90;;;;;;5054976;28;20023;-76
2022/08/16 04:39:33;;;;;;;;;;;19.10;99.90;;;;;;5024747;28;20087;-75
2022/08/16 04:41:59;;;;;;;2.67;2.27;;;19.10;99.90;;;;;;5024662;28;19963;-75
2022/08/16 04:44:25;;;;;;;2.20;2.00;;;19.10;99.90;;;;;;5011069;28;20393;-75
2022/08/16 04:46:51;;;;;;;;;;;19.00;99.90;;;;;;5026490;28;20037;-75
2022/08/16 05:03:01;;;;;;;2.80;2.40;;;19.10;99.90;;;;;;6150404;22;1302478;-77
2022/08/16 05:05:50;;;;;;;3.22;2.60;;;19.20;99.90;;;;;;6189617;22;20346;31
2022/08/16 05:08:16;;;;;;;2.42;2.08;;;19.10;99.90;;;;;;6240908;22;20103;-75
2022/08/16 05:10:42;;;;;;;2.25;2.05;;;19.10;99.90;;;;;;6220170;23;20419;-74
2022/08/16 05:13:07;;;;;;;;;;;19.10;99.90;;;;;;6220554;23;20091;-73
2022/08/16 05:15:34;;;;;;;3.00;2.70;;;19.20;99.90;;;;;;6243448;23;19915;-74
2022/08/16 05:18:00;;;;;;;3.10;2.80;;;19.20;99.90;;;;;;6193320;23;20008;-72
2022/08/16 05:20:26;;;;;;;3.15;2.85;;;19.20;99.90;;;;;;6193521;23;20477;-75
2022/08/16 05:22:52;;;;;;;3.40;3.10;;;19.20;99.90;;;;;;6219774;23;20020;-75
2022/08/16 05:25:19;;;;;;;;;;;19.20;99.90;;;;;;6189106;23;20020;-74
2022/08/16 05:27:45;;;;;;;3.70;3.30;;;19.20;99.90;;;;;;6243762;23;19918;-73
2022/08/16 05:30:14;;;;;;;;;;;19.20;99.90;;;;;;6193984;23;20048;-74
2022/08/16 05:32:41;;;;;;;4.25;3.85;;;19.20;99.90;;;;;;6192341;23;19947;-74
2022/08/16 05:35:09;;;;;;;2.95;2.65;;;19.20;99.90;;;;;;6194526;23;20032;-78
2022/08/16 05:37:36;;;;;;;2.50;2.30;;;19.30;99.90;;;;;;6170261;23;20016;-76
2022/08/16 05:40:05;;;;;;;2.90;2.60;;;19.40;99.90;;;;;;6194327;23;20083;-76
2022/08/16 05:42:31;;;;;;;2.85;2.58;;;19.30;99.90;;;;;;6194796;23;20023;-76
2022/08/16 05:44:56;;;;;;;;;;;19.30;99.90;;;;;;6195467;23;20091;-76
2022/08/16 05:47:22;;;;;;;2.63;2.30;;;19.40;99.90;;;;;;6244989;23;19918;-77
2022/08/16 05:49:47;;;;;;;;;;;19.40;99.90;;;;;;6195536;23;20020;-76
2022/08/16 05:52:13;;;;;;;3.20;2.70;;;19.50;99.90;;;;;;6194902;23;20009;-78
2022/08/16 05:54:39;;;;;;;;;;;19.50;99.90;;;;;;6194403;23;20457;-78
2022/08/16 05:57:05;;;;;;;4.20;3.15;;;19.60;99.90;;;;;;6194902;23;20025;-77
2022/08/16 05:59:31;;;;;;;;;;;19.60;99.90;;;;;;6195392;23;20016;-77
2022/08/16 06:01:57;;;;;;;3.42;3.13;;;19.70;99.90;;;;;;6217899;23;19912;-76
2022/08/16 06:04:22;;;;;;;3.63;3.28;;;19.70;99.90;;;;;;6187805;23;20017;-77
2022/08/16 06:06:48;;;;;;;;;;;19.80;99.90;;;;;;6195894;23;20093;-77
2022/08/16 06:09:15;;;;;;;3.40;3.10;;;19.80;99.90;;;;;;6212969;23;19942;-77
2022/08/16 06:11:42;;;;;;;2.70;2.50;;;20.00;99.90;;;;;;6213383;23;20016;-77
2022/08/16 06:14:08;;;;;;;3.70;3.28;;;20.00;99.90;;;;;;6212233;23;20016;-77
2022/08/16 06:16:33;;;;;;;;;;;20.10;99.90;;;;;;6212380;23;20021;-77
2022/08/16 06:18:59;;;;;;;3.53;3.22;;;20.20;99.90;;;;;;6210817;23;19916;-77
2022/08/16 06:21:25;;;;;;;;;;;20.30;99.90;;;;;;6205384;23;20028;-78
2022/08/16 06:23:51;;;;;;;3.10;2.80;;;20.40;99.90;;;;;;6209001;23;19938;-74
2022/08/16 06:26:17;;;;;;;3.60;3.30;;;20.50;99.90;;;;;;6211454;23;20442;-77
2022/08/16 06:28:43;;;;;;;3.20;2.90;;;20.60;99.90;;;;;;6209854;23;20024;-75
2022/08/16 06:31:11;;;;;;;3.65;3.22;;;20.80;99.90;;;;;;6210901;23;20048;-74
2022/08/16 06:33:37;;;;;;;3.05;2.75;;;21.10;99.90;;;;;;6210600;23;20016;-74
2022/08/16 06:36:03;;;;;;;;;;;21.40;99.90;;;;;;6212013;23;20017;-74
2022/08/16 06:38:28;;;;;;;3.92;3.45;;;21.60;99.90;;;;;;6211078;23;19947;-74
2022/08/16 06:40:54;;;;;;;;;;;21.70;99.90;;;;;;6211809;23;20071;-74
2022/08/16 06:43:20;;;;;;;3.65;3.35;;;21.60;99.90;;;;;;6210422;23;19966;-75
2022/08/16 06:45:46;;;;;;;;;;;21.60;99.90;;;;;;6186366;23;20020;-75
2022/08/16 06:48:12;;;;;;;4.63;3.80;;;21.60;99.90;;;;;;6186808;23;19912;-76
2022/08/16 06:50:38;;;;;;;5.30;4.18;;;21.60;99.90;;;;;;6211245;23;20021;-75
2022/08/16 06:53:04;;;;;;;3.55;3.25;;;21.70;99.90;;;;;;6210758;23;20088;-75
2022/08/16 06:55:30;;;;;;;3.95;3.33;;;21.80;99.90;;;;;;6210901;23;20650;-75
2022/08/16 06:57:56;;;;;;;3.45;3.00;;;21.90;99.90;;;;;;6209405;23;20095;-75
2022/08/16 07:00:23;;;;;;;3.83;3.42;;;22.00;99.90;;;;;;6210606;23;20051;-75
2022/08/16 07:02:48;;;;;;;5.15;3.83;;;22.20;99.90;;;;;;6210871;23;20090;-77
2022/08/16 07:05:15;;;;;;;4.00;3.10;;;22.30;99.90;;;;;;6209213;23;20021;-76
2022/08/16 07:07:44;;;;;;;3.38;3.08;;;22.40;99.90;;;;;;6210340;23;20020;-71
2022/08/16 07:10:10;;;;;;;3.22;2.92;;;22.60;99.90;;;;;;6209744;23;20048;-71
2022/08/16 07:12:36;;;;;;;4.20;3.80;;;22.80;99.90;;;;;;6210432;23;20019;-77
2022/08/16 07:15:03;;;;;;;4.20;3.80;;;23.00;99.90;;;;;;6208652;23;20322;-71
2022/08/16 07:17:30;;;;;;;6.30;4.30;;;23.30;99.90;;;;;;6210038;23;20042;-71
2022/08/16 07:19:56;;;;;;;5.25;4.78;;;23.50;99.90;;;;;;6209126;23;20013;-73
2022/08/16 07:22:23;;;;;;;5.35;4.30;;;23.80;99.90;;;;;;6209888;23;20068;-71
2022/08/16 07:24:48;;;;;;;5.25;4.10;;;24.00;99.90;;;;;;6211130;23;20545;-70
2022/08/16 07:27:14;;;;;;;4.50;4.07;;;24.20;99.90;;;;;;6184498;23;20052;-70
2022/08/16 07:29:52;;;;;;;6.88;5.32;;;24.40;99.90;;;;;;6208440;23;20301;-71
2022/08/16 07:32:19;;;;;;;4.78;4.38;;;24.40;99.90;;;;;;6185075;23;20453;-76
2022/08/16 07:34:46;;;;;;;5.07;4.57;;;24.60;99.90;;;;;;6212199;23;20020;-76
2022/08/16 07:37:12;;;;;;;4.40;4.00;;;24.60;99.90;;;;;;6211560;23;20121;-76
2022/08/16 07:39:38;;;;;;;3.95;3.55;;;24.70;99.90;;;;;;6211777;23;20429;-75
2022/08/16 07:42:04;;;;;;;4.78;4.28;;;24.90;99.90;;;;;;6211460;23;20024;-76
2022/08/16 07:44:30;;;;;;;4.53;4.07;;;24.90;99.90;;;;;;6211319;23;20070;-75
2022/08/16 07:46:56;;;;;;;4.00;3.60;;;25.10;99.90;;;;;;6211339;23;20016;-76
2022/08/16 07:49:23;;;;;;;4.53;4.03;;;25.30;99.90;;;;;;6212288;23;20087;-75
2022/08/16 07:51:49;;;;;;;4.38;3.97;;;25.40;99.90;;;;;;6210659;23;20021;-75
2022/08/16 07:54:15;;;;;;;3.85;3.50;;;25.30;99.90;;;;;;6209500;23;20017;-75
2022/08/16 07:56:41;;;;;;;3.97;3.45;;;25.40;99.40;;;;;;6210667;23;20020;-75
2022/08/16 07:59:07;;;;;;;6.53;5.47;;;25.50;98.90;;;;;;6209706;23;20375;-76
2022/08/16 08:01:33;;;;;;;5.72;4.45;;;25.30;98.60;;;;;;6209987;23;20019;-75
2022/08/16 08:03:59;;;;;;;4.38;3.97;;;25.20;99.20;;;;;;6209351;23;20024;-75
2022/08/16 08:06:28;;;;;;;3.80;3.40;;;25.40;99.00;;;;;;6212202;23;20103;-75
2022/08/16 08:08:55;;;;;;;5.38;4.00;;;25.60;99.00;;;;;;6214574;23;20118;-76
2022/08/16 08:11:23;;;;;;;5.35;3.80;;;25.80;98.40;;;;;;6215744;23;20016;-76
2022/08/16 08:13:51;;;;;;;5.10;4.60;;;25.70;98.40;;;;;;6190605;23;20026;-76
2022/08/16 08:16:17;;;;;;;5.10;4.60;;;25.70;98.20;;;;;;6214840;23;20091;-76
2022/08/16 08:18:43;;;;;;;4.22;3.83;;;25.60;98.60;;;;;;6215210;23;20042;-76
2022/08/16 08:21:09;;;;;;;4.68;3.88;;;25.60;98.70;;;;;;6214366;23;20031;-76
2022/08/16 08:23:35;;;;;;;4.40;3.80;;;25.70;98.50;;;;;;6215974;23;20050;-75
2022/08/16 08:26:03;;;;;;;4.40;4.00;;;25.70;98.60;;;;;;6215820;23;20016;-76
2022/08/16 08:28:30;;;;;;;4.72;3.97;;;25.80;98.30;;;;;;6215551;23;20452;-75
2022/08/16 08:30:57;;;;;;;4.03;3.45;;;25.90;98.20;;;;;;6215821;23;20020;-76
2022/08/16 08:33:23;;;;;;;4.97;3.33;;;26.00;98.30;;;;;;6215031;23;20441;-75
2022/08/16 08:35:48;;;;;;;4.32;3.22;;;26.10;98.10;;;;;;6213809;23;20020;-76
2022/08/16 08:38:15;;;;;;;3.67;3.38;;;26.10;98.20;;;;;;6241347;23;20019;-75
2022/08/16 08:40:43;;;;;;;3.33;3.03;;;26.10;97.70;;;;;;6215381;23;20020;-76
2022/08/16 08:43:11;;;;;;;4.07;3.42;;;26.20;97.40;;;;;;6215719;23;20321;-75
2022/08/16 08:45:38;;;;;;;4.38;3.35;;;26.20;97.20;;;;;;6215776;23;20453;-76
2022/08/16 08:48:04;;;;;;;3.10;2.80;;;26.20;97.40;;;;;;6216049;23;20086;-76
2022/08/16 08:50:30;;;;;;;5.20;3.88;;;26.40;97.50;;;;;;6215587;23;20054;-76
2022/08/16 08:52:56;;;;;;;4.88;4.05;;;26.30;97.60;;;;;;6242250;23;20012;-75
2022/08/16 08:55:21;;;;;;;4.57;3.65;;;26.20;97.20;;;;;;6190816;23;20510;-75
2022/08/16 08:57:48;;;;;;;3.17;2.72;;;26.40;97.30;;;;;;6239448;23;20016;-75
2022/08/16 09:00:18;;;;;;;3.42;3.13;;;26.70;97.50;;;;;;6190614;23;20809;-75
2022/08/16 09:02:44;;;;;;;4.57;3.08;;;26.80;97.00;;;;;;6216611;23;20605;-74
2022/08/16 09:05:13;;;;;;;3.50;3.20;;;26.80;96.70;;;;;;6216650;23;20024;-74
2022/08/16 09:07:38;;;;;;;3.20;2.90;;;26.90;96.40;;;;;;6215835;23;20016;-75
2022/08/16 09:10:06;;;;;;;2.70;2.50;;;26.90;96.10;;;;;;6214206;23;20139;-74
2022/08/16 09:12:33;;;;;;;3.63;3.10;;;27.10;96.20;;;;;;6214569;23;20459;-74
2022/08/16 09:14:59;;;;;;;3.30;2.70;;;27.00;95.00;;;;;;6242278;23;20668;-75
2022/08/16 09:17:25;;;;;;;3.35;2.80;;;27.00;95.30;;;;;;6215339;23;20210;-75
2022/08/16 09:19:54;;;;;;;3.22;2.53;;;27.10;95.70;;;;;;6215225;23;20013;-74
2022/08/16 09:22:20;;;;;;;2.80;2.50;;;27.20;95.60;;;;;;6215660;23;20094;-74
2022/08/16 09:24:47;;;;;;;3.70;2.60;;;27.40;95.50;;;;;;6215954;23;20353;-74
2022/08/16 09:27:13;;;;;;;5.53;2.70;;;27.50;95.40;;;;;;6216416;23;20395;-75
2022/08/16 09:29:39;;;;;;;2.85;2.50;;;27.50;95.20;;;;;;6215334;23;20027;-75
2022/08/16 09:32:05;;;;;;;3.55;3.03;;;27.40;94.60;;;;;;6190375;23;20020;-76
2022/08/16 09:34:31;;;;;;;2.92;2.45;;;27.50;94.70;;;;;;6189419;23;20061;-75
2022/08/16 09:36:57;;;;;;;2.78;2.42;;;27.60;94.60;;;;;;6212797;23;20023;-76
2022/08/16 09:39:24;;;;;;;2.95;2.67;;;27.70;94.60;;;;;;6217029;23;20103;-76
2022/08/16 09:41:51;;;;;;;3.63;3.00;;;27.60;95.00;;;;;;6218138;23;20016;-75
2022/08/16 09:44:19;;;;;;;3.45;2.75;;;27.50;94.30;;;;;;6218353;23;20047;-73
2022/08/16 09:46:45;;;;;;;3.22;2.70;;;27.50;94.10;;;;;;6217335;23;20020;-73
2022/08/16 09:49:12;;;;;;;4.45;2.45;;;27.70;94.30;;;;;;6217646;23;20023;-76
2022/08/16 09:51:39;;;;;;;2.72;2.53;;;27.80;94.40;;;;;;6215958;23;20070;-75
2022/08/16 09:54:05;;;;;;;2.97;2.40;;;27.90;94.30;;;;;;6217871;23;20031;-76
2022/08/16 09:56:34;;;;;;;3.47;2.60;;;28.20;94.40;;;;;;6216794;23;20050;-75
2022/08/16 09:59:02;;;;;;;2.85;2.53;;;28.40;94.50;;;;;;6216772;23;20051;-75
2022/08/16 10:01:30;;;;;;;4.35;2.00;;;28.50;94.40;;;;;;6242037;23;20027;-76
2022/08/16 10:03:56;;;;;;;6.30;3.17;;;28.70;94.70;;;;;;6217465;23;20016;-75
2022/08/16 10:06:23;;;;;;;3.25;2.50;;;28.60;94.40;;;;;;6191804;23;20070;-75
2022/08/16 10:08:49;;;;;;;2.72;2.50;;;28.70;94.30;;;;;;6217105;23;20095;-75
2022/08/16 10:14:01;;;;;;;2.88;2.40;;;28.90;94.10;;;;;;6243201;23;20055;-72
2022/08/16 10:16:26;;;;;;;4.95;2.53;;;28.90;93.90;;;;;;6191657;23;20066;-70
2022/08/16 10:18:52;;;;;;;3.75;3.13;;;29.00;94.00;;;;;;6214307;23;20020;-71
2022/08/16 10:21:18;;;;;;;2.80;2.60;;;28.90;94.00;;;;;;6213928;23;20375;-74
2022/08/16 10:23:44;;;;;;;3.50;2.63;;;29.00;93.90;;;;;;6211279;23;20298;-71
2022/08/16 10:26:11;;;;;;;2.50;2.30;;;29.00;94.10;;;;;;6243150;23;20326;-70
2022/08/16 10:28:37;;;;;;;2.63;2.42;;;29.00;94.30;;;;;;6214627;23;20019;-70
2022/08/16 10:31:04;;;;;;;3.55;3.15;;;29.20;93.60;;;;;;6216472;23;20027;-71
2022/08/16 10:33:32;;;;;;;3.47;3.00;;;28.70;93.50;;;;;;6215776;23;20048;-70
2022/08/16 10:35:59;;;;;;;3.20;2.90;;;28.90;93.90;;;;;;6214052;23;20083;-70
2022/08/16 10:38:26;;;;;;;6.50;3.00;;;28.90;93.90;;;;;;6215066;23;20043;-70
2022/08/16 10:40:53;;;;;;;3.67;2.50;;;28.80;93.70;;;;;;6213801;23;20103;-71
2022/08/16 10:43:19;;;;;;;3.38;2.60;;;29.00;94.00;;;;;;6215279;23;20111;-71
2022/08/16 10:45:46;;;;;;;3.15;2.63;;;29.20;94.20;;;;;;6215264;23;20031;-71
2022/08/16 10:48:12;;;;;;;2.90;2.63;;;29.50;93.60;;;;;;6214004;23;20027;-71
2022/08/16 10:50:38;;;;;;;2.88;2.58;;;29.50;93.60;;;;;;6215247;23;20016;-71
2022/08/16 10:53:05;;;;;;;3.22;2.88;;;29.60;93.70;;;;;;6214060;23;20810;-71
2022/08/16 10:55:33;;;;;;;3.25;2.95;;;29.60;93.60;;;;;;6213737;23;20590;-70
2022/08/16 10:58:01;;;;;;;4.60;2.75;;;29.50;93.30;;;;;;6188420;23;20452;-71
2022/08/16 11:00:27;;;;;;;4.55;2.80;;;29.50;93.70;;;;;;6213293;23;20012;-71
2022/08/16 11:02:53;;;;;;;2.50;2.30;;;29.60;93.40;;;;;;6241794;23;20020;-71
2022/08/16 11:05:18;;;;;;;3.05;2.20;;;29.80;93.40;;;;;;6189381;23;20397;-71
2022/08/16 11:07:47;;;;;;;2.42;2.22;;;29.80;92.90;;;;;;6189524;23;20064;-72
2022/08/16 11:10:16;;;;;;;2.65;2.28;;;29.80;93.40;;;;;;6215068;23;20039;-71
2022/08/16 11:12:42;;;;;;;3.70;2.60;;;30.00;93.20;;;;;;6213758;23;20539;-70
2022/08/16 11:15:08;;;;;;;4.20;3.30;;;30.10;93.30;;;;;;6214508;23;20023;-70
2022/08/16 11:17:34;;;;;;;3.80;2.53;;;29.90;92.80;;;;;;6214070;23;20086;-70
2022/08/16 11:20:00;;;;;;;2.90;2.50;;;30.00;92.90;;;;;;6188930;23;20396;-71
2022/08/16 11:22:25;;;;;;;2.85;2.40;;;30.00;93.20;;;;;;6214499;23;20012;-70
2022/08/16 11:24:51;;;;;;;3.00;2.55;;;30.00;93.10;;;;;;6213921;23;20084;-71
2022/08/16 11:27:21;;;;;;;2.90;2.45;;;30.00;92.80;;;;;;6242086;23;20016;-70
2022/08/16 11:29:49;;;;;;;2.63;2.35;;;30.00;92.50;;;;;;6184803;23;20112;-70
2022/08/16 11:32:16;;;;;;;3.10;2.22;;;30.10;92.60;;;;;;6239541;23;20052;-71
2022/08/16 11:34:42;;;;;;;3.15;2.20;;;30.10;92.50;;;;;;6215134;23;20048;-71
2022/08/16 11:37:07;;;;;;;3.35;2.60;;;30.10;92.60;;;;;;6214262;23;20024;-70
2022/08/16 11:39:34;;;;;;;3.00;2.28;;;30.10;92.20;;;;;;6191101;23;20019;-71
2022/08/16 11:42:00;;;;;;;2.47;2.15;;;30.10;92.20;;;;;;6216007;23;20323;-71
2022/08/16 11:44:25;;;;;;;2.60;2.30;;;30.00;92.20;;;;;;6215350;23;20024;-70
2022/08/16 11:46:51;;;;;;;4.47;2.92;;;30.00;92.00;;;;;;6215467;23;20455;-71
2022/08/16 11:49:17;;;;;;;3.50;2.47;;;29.90;92.50;;;;;;6214770;23;20024;-71
2022/08/16 11:51:48;;;;;;;2.72;2.22;;;29.80;92.50;;;;;;6215691;23;20043;-71
2022/08/16 11:54:15;;;;;;;2.50;2.30;;;30.00;92.90;;;;;;6215353;23;20048;-71
2022/08/16 11:56:40;;;;;;;4.28;2.47;;;30.20;92.30;;;;;;6214873;23;20093;-71
2022/08/16 11:59:07;;;;;;;2.67;2.20;;;30.20;92.50;;;;;;6216112;23;20062;-71
2022/08/16 12:01:32;;;;;;;3.67;2.67;;;30.20;92.20;;;;;;6215114;23;20020;-70
2022/08/16 12:03:58;;;;;;;2.45;2.22;;;30.20;92.20;;;;;;6215728;23;20083;-70
2022/08/16 12:06:24;;;;;;;3.05;2.22;;;30.20;92.60;;;;;;6215027;23;20135;-69
2022/08/16 12:08:52;;;;;;;2.50;2.30;;;30.60;92.50;;;;;;6213170;23;20468;-69
2022/08/16 12:11:17;;;;;;;2.70;2.03;;;30.70;92.50;;;;;;6214209;23;20023;-69
2022/08/16 12:13:44;;;;;;;3.03;2.28;;;30.40;92.30;;;;;;6215034;23;20015;-69
2022/08/16 12:16:10;;;;;;;2.50;2.22;;;29.90;92.40;;;;;;6212164;23;20030;-70
2022/08/16 12:18:38;;;;;;;3.58;2.95;;;29.80;92.50;;;;;;6215796;23;20472;-72
2022/08/16 12:21:05;;;;;;;4.70;2.70;;;29.50;92.30;;;;;;6216089;23;20016;-70
2022/08/16 12:23:30;;;;;;;2.55;2.33;;;29.40;92.50;;;;;;6216073;23;20048;-70
2022/08/16 12:25:57;;;;;;;2.58;2.20;;;29.60;92.60;;;;;;6215286;23;20020;-70
2022/08/16 12:28:24;;;;;;;2.50;2.30;;;29.70;92.50;;;;;;6189850;23;20020;-70
2022/08/16 12:30:53;;;;;;;3.53;2.45;;;29.80;92.60;;;;;;6190899;23;20055;-70
2022/08/16 12:33:18;;;;;;;2.78;2.33;;;29.70;91.90;;;;;;6242219;23;20428;-75
2022/08/16 12:35:47;;;;;;;3.00;2.10;;;29.80;92.10;;;;;;6244084;23;20016;-76
2022/08/16 12:38:14;;;;;;;2.50;1.90;;;29.90;92.40;;;;;;6215797;23;20079;-76
2022/08/16 12:40:43;;;;;;;2.83;2.20;;;30.30;92.20;;;;;;6215463;23;20336;-76
2022/08/16 12:43:12;;;;;;;4.28;2.70;;;30.40;91.70;;;;;;6216655;23;20020;-76
2022/08/16 12:45:46;;;;;;;3.58;2.95;;;30.10;91.60;;;;;;6211970;23;20031;-76
2022/08/16 12:50:59;;;;;;;3.67;2.83;;;29.90;92.00;;;;;;6215965;23;20027;-76
2022/08/16 12:53:25;;;;;;;3.88;2.63;;;29.70;91.90;;;;;;6242590;23;20016;-77
2022/08/16 12:55:57;;;;;;;3.28;2.63;;;29.80;91.60;;;;;;6215153;23;20016;-78
2022/08/16 12:58:23;;;;;;;2.60;2.20;;;29.80;92.00;;;;;;6215492;23;20425;-77
2022/08/16 13:00:49;;;;;;;2.50;2.30;;;29.90;91.70;;;;;;6213794;23;20018;-71
2022/08/16 13:03:15;;;;;;;2.47;2.22;;;29.80;91.70;;;;;;6213483;23;20024;-71
2022/08/16 13:05:41;;;;;;;2.50;2.30;;;29.80;92.10;;;;;;6215155;23;20118;-71
2022/08/16 13:08:12;;;;;;;3.13;2.42;;;29.60;92.10;;;;;;6215212;23;20150;-71
2022/08/16 13:10:38;;;;;;;5.35;3.40;;;29.40;92.00;;;;;;6242249;23;20095;-71
2022/08/16 13:13:06;;;;;;;2.40;2.20;;;29.00;92.40;;;;;;6216322;23;20405;-71